Time;durP1;ratioP1;P1;durP2;ratioP2;P2;SDS_P1;SDS_P2;PMS_P1;PMS_P2;Temp;Humidity;BMP_temperature;BMP_pressure;BME280_temperature;BME280_humidity;BME280_pressure;Samples;Min_cycle;Max_cycle;Signal;HPM_P1;HPM_P2
2021/11/28 00:02:12;;;;;;;17.80;11.05;;;9.50;73.00;;;;;;4885649;29;20515;-81
2021/11/28 00:04:38;;;;;;;17.08;11.25;;;9.50;73.10;;;;;;4888770;29;20043;-81
2021/11/28 00:07:20;;;;;;;16.70;10.88;;;9.60;73.20;;;;;;4886138;29;20045;-81
2021/11/28 00:15:09;;;;;;;21.05;13.02;;;9.60;73.30;;;;;;4887052;29;20604;-82
2021/11/28 00:17:36;;;;;;;17.85;12.05;;;9.60;73.30;;;;;;4886878;29;20047;-82
2021/11/28 00:20:06;;;;;;;20.35;12.43;;;9.50;73.30;;;;;;4890184;29;20485;-81
2021/11/28 00:22:32;;;;;;;19.38;12.30;;;9.60;73.40;;;;;;4873411;29;20043;-82
2021/11/28 00:24:58;;;;;;;21.58;13.00;;;9.60;73.50;;;;;;4889388;29;20488;-83
2021/11/28 00:27:24;;;;;;;18.73;12.43;;;9.60;73.50;;;;;;4889933;29;20039;-83
2021/11/28 00:29:50;;;;;;;21.30;12.85;;;9.60;73.50;;;;;;4877747;29;20494;-83
2021/11/28 00:32:16;;;;;;;21.50;12.70;;;9.50;73.50;;;;;;4890426;29;20196;-82
2021/11/28 00:34:43;;;;;;;19.65;12.73;;;9.60;73.60;;;;;;4890402;29;20639;-82
2021/11/28 00:37:11;;;;;;;22.80;13.73;;;9.50;73.60;;;;;;4892009;29;20029;-82
2021/11/28 00:39:37;;;;;;;23.25;13.77;;;9.60;73.60;;;;;;4890607;29;20530;-83
2021/11/28 00:42:06;;;;;;;21.63;13.27;;;9.60;73.70;;;;;;4890565;29;20044;-82
2021/11/28 00:44:32;;;;;;;25.63;14.40;;;9.60;73.60;;;;;;4889669;29;20073;-82
2021/11/28 00:46:58;;;;;;;21.83;13.55;;;9.60;73.70;;;;;;4888463;29;20039;-82
2021/11/28 00:49:26;;;;;;;24.00;14.80;;;9.60;73.70;;;;;;4877571;29;20073;-82
2021/11/28 00:51:56;;;;;;;26.13;15.13;;;9.60;73.60;;;;;;4874821;29;20042;-82
2021/11/28 00:54:26;;;;;;;22.88;14.18;;;9.60;73.60;;;;;;4874711;29;20033;-82
2021/11/28 00:56:53;;;;;;;27.88;14.75;;;9.60;73.80;;;;;;4888660;29;20040;-83
2021/11/28 00:59:19;;;;;;;25.45;13.73;;;9.70;74.50;;;;;;4873721;29;20519;-80
2021/11/28 01:01:45;;;;;;;23.45;13.57;;;9.60;73.90;;;;;;4888093;29;20028;-81
2021/11/28 01:04:11;;;;;;;22.38;13.38;;;9.60;73.90;;;;;;4889409;29;20032;-81
2021/11/28 01:06:37;;;;;;;22.38;13.63;;;9.70;74.00;;;;;;4889375;29;20664;-81
2021/11/28 01:09:05;;;;;;;22.30;13.75;;;9.60;73.90;;;;;;4890873;29;20047;-81
2021/11/28 01:11:32;;;;;;;23.98;13.57;;;9.70;73.90;;;;;;4889561;29;20135;-82
2021/11/28 01:13:58;;;;;;;22.05;12.93;;;9.70;74.00;;;;;;4889585;29;20115;-82
2021/11/28 01:16:25;;;;;;;23.45;13.63;;;9.70;74.00;;;;;;4889719;29;20032;-81
2021/11/28 01:18:52;;;;;;;22.00;13.45;;;9.70;74.10;;;;;;4891776;29;20095;-83
2021/11/28 01:21:19;;;;;;;22.58;14.52;;;9.70;74.20;;;;;;4888362;29;20041;-82
2021/11/28 01:23:46;;;;;;;20.60;13.15;;;9.70;74.10;;;;;;4889635;29;20036;-82
2021/11/28 01:26:13;;;;;;;25.73;13.82;;;9.70;74.20;;;;;;4888682;29;20131;-82
2021/11/28 01:28:39;;;;;;;22.98;13.52;;;9.70;74.20;;;;;;4873069;29;20079;-82
2021/11/28 01:31:05;;;;;;;22.77;14.07;;;9.60;74.10;;;;;;4887801;29;20050;-82
2021/11/28 01:33:32;;;;;;;24.40;14.52;;;9.70;74.20;;;;;;4889584;29;20089;-81
2021/11/28 01:35:57;;;;;;;21.58;13.30;;;9.70;74.20;;;;;;4886641;29;20484;-83
2021/11/28 01:38:24;;;;;;;25.10;15.13;;;9.70;74.30;;;;;;4877460;29;20044;-83
2021/11/28 01:40:54;;;;;;;23.67;14.60;;;9.70;74.30;;;;;;4876524;29;20420;-82
2021/11/28 01:43:20;;;;;;;24.92;14.98;;;9.70;74.20;;;;;;4889549;29;20127;-81
2021/11/28 01:45:49;;;;;;;25.80;14.27;;;9.70;74.20;;;;;;4885688;29;20096;-81
2021/11/28 01:48:17;;;;;;;24.70;14.20;;;9.70;74.20;;;;;;4871973;29;20036;-82
2021/11/28 01:50:48;;;;;;;24.17;15.50;;;9.70;74.00;;;;;;4887170;29;20045;-81
2021/11/28 01:53:18;;;;;;;22.75;14.32;;;9.70;74.10;;;;;;4870125;29;20561;-81
2021/11/28 01:55:44;;;;;;;25.45;15.18;;;9.70;74.10;;;;;;4886139;29;20516;-82
2021/11/28 01:58:15;;;;;;;21.27;13.18;;;9.80;74.00;;;;;;4876767;29;20640;-81
2021/11/28 02:00:47;;;;;;;23.92;13.98;;;9.70;74.20;;;;;;4888375;29;20067;-82
2021/11/28 02:03:16;;;;;;;21.23;13.18;;;9.70;74.10;;;;;;4876247;29;20432;-81
2021/11/28 02:05:46;;;;;;;21.15;14.15;;;9.80;74.40;;;;;;4888010;29;20040;-81
2021/11/28 02:08:12;;;;;;;19.67;12.23;;;9.80;74.40;;;;;;4875701;29;20096;-81
2021/11/28 02:10:39;;;;;;;22.08;12.45;;;9.70;74.20;;;;;;4888485;29;20056;-82
2021/11/28 02:13:05;;;;;;;21.60;14.10;;;9.80;74.20;;;;;;4875763;29;20040;-82
2021/11/28 02:15:34;;;;;;;21.00;13.27;;;9.70;74.30;;;;;;4860226;29;20153;-82
2021/11/28 02:18:00;;;;;;;22.40;13.13;;;9.80;74.20;;;;;;4889782;29;20056;-82
2021/11/28 02:20:30;;;;;;;20.27;13.02;;;9.80;74.40;;;;;;4887607;29;20036;-82
2021/11/28 02:22:57;;;;;;;20.75;12.98;;;9.80;74.30;;;;;;4887681;29;20498;-82
2021/11/28 02:25:26;;;;;;;18.83;12.45;;;9.80;74.20;;;;;;4888063;29;20036;-81
2021/11/28 02:27:55;;;;;;;18.05;12.35;;;9.80;74.30;;;;;;4871166;29;20044;-82
2021/11/28 02:30:22;;;;;;;17.98;11.50;;;9.80;74.20;;;;;;4887535;29;20508;-82
2021/11/28 02:32:49;;;;;;;20.35;12.10;;;9.80;74.40;;;;;;4887681;29;20131;-82
2021/11/28 02:35:17;;;;;;;18.27;11.80;;;9.80;74.40;;;;;;4887606;29;20120;-81
2021/11/28 02:37:44;;;;;;;18.38;12.18;;;9.80;74.40;;;;;;4887769;29;20070;-82
2021/11/28 02:40:17;;;;;;;16.23;11.23;;;9.80;75.00;;;;;;4876672;29;20071;-83
2021/11/28 02:42:44;;;;;;;18.80;12.05;;;9.80;74.40;;;;;;4887672;29;20119;-80
2021/11/28 02:45:11;;;;;;;16.75;11.30;;;9.80;74.40;;;;;;4874478;29;20047;-82
2021/11/28 02:47:40;;;;;;;14.70;10.35;;;9.80;74.50;;;;;;4870347;29;20591;-80
2021/11/28 02:50:07;;;;;;;16.75;11.38;;;9.90;74.50;;;;;;4888569;29;20518;-80
2021/11/28 02:52:33;;;;;;;16.73;11.18;;;9.80;74.50;;;;;;4889544;29;20037;-80
2021/11/28 02:55:00;;;;;;;18.55;11.68;;;9.80;74.50;;;;;;4869293;29;20040;-80
2021/11/28 02:57:27;;;;;;;16.52;11.05;;;9.80;74.50;;;;;;4886946;29;20479;-81
2021/11/28 02:59:53;;;;;;;16.60;11.25;;;9.80;74.40;;;;;;4871202;29;20048;-81
2021/11/28 03:02:19;;;;;;;15.40;10.45;;;9.90;74.40;;;;;;4871711;29;20032;-81
2021/11/28 03:05:06;;;;;;;;;;;9.90;74.40;;;;;;4886123;29;20532;-81
2021/11/28 03:07:32;;;;;;;17.27;10.93;;;9.90;74.40;;;;;;4889313;29;19974;-81
2021/11/28 03:09:58;;;;;;;17.23;11.00;;;9.90;74.20;;;;;;4887801;29;20092;-81
2021/11/28 03:12:24;;;;;;;15.30;10.98;;;9.90;74.20;;;;;;4887244;29;20036;-81
2021/11/28 03:14:50;;;;;;;15.35;10.60;;;9.90;74.40;;;;;;4875075;29;20080;-81
2021/11/28 03:17:15;;;;;;;15.35;10.95;;;9.90;74.20;;;;;;4886336;29;20037;-81
2021/11/28 03:19:42;;;;;;;16.83;10.93;;;9.90;74.40;;;;;;4871197;29;20407;-81
2021/11/28 03:22:08;;;;;;;15.52;11.30;;;9.90;74.40;;;;;;4887054;29;20072;-81
2021/11/28 03:24:34;;;;;;;17.20;11.48;;;9.90;74.50;;;;;;4869154;29;20482;-82
2021/11/28 03:27:00;;;;;;;17.23;11.77;;;9.90;74.60;;;;;;4885416;29;20381;-82
2021/11/28 03:29:27;;;;;;;16.73;11.23;;;9.90;74.40;;;;;;4885686;29;20564;-81
2021/11/28 03:32:02;;;;;;;16.85;11.35;;;10.00;74.60;;;;;;4887884;29;20053;-82
2021/11/28 03:34:35;;;;;;;16.30;11.73;;;9.90;74.50;;;;;;4887704;29;20491;-82
2021/11/28 03:37:07;;;;;;;18.35;11.98;;;9.90;74.50;;;;;;4889012;29;20128;-82
2021/11/28 03:39:33;;;;;;;19.52;11.18;;;9.90;74.50;;;;;;4874958;29;20135;-82
2021/11/28 03:42:05;;;;;;;18.15;12.05;;;9.90;74.50;;;;;;4870320;29;20041;-82
2021/11/28 03:44:32;;;;;;;14.70;11.13;;;9.90;74.50;;;;;;4872316;29;20213;-82
2021/11/28 03:47:11;;;;;;;17.45;11.60;;;9.90;74.50;;;;;;4856913;29;20038;-82
2021/11/28 03:49:38;;;;;;;15.50;11.10;;;10.00;74.50;;;;;;4886301;29;20056;-81
2021/11/28 03:52:04;;;;;;;16.35;11.88;;;10.00;74.50;;;;;;4875041;29;20119;-81
2021/11/28 03:54:31;;;;;;;14.77;10.60;;;10.00;74.60;;;;;;4879276;29;20033;-81
2021/11/28 03:56:57;;;;;;;15.32;10.77;;;10.00;74.50;;;;;;4890173;29;20116;-82
2021/11/28 03:59:25;;;;;;;17.35;11.65;;;10.00;74.50;;;;;;4877730;29;20609;-81
2021/11/28 04:01:51;;;;;;;15.93;10.68;;;10.00;74.50;;;;;;4872524;29;20131;-82
2021/11/28 04:04:18;;;;;;;16.77;11.05;;;10.00;74.40;;;;;;4878333;29;20035;-81
2021/11/28 04:07:03;;;;;;;17.27;11.68;;;10.00;74.40;;;;;;4891881;29;20100;-81
2021/11/28 04:09:31;;;;;;;16.42;10.90;;;10.00;74.40;;;;;;4878182;29;20483;-79
2021/11/28 04:11:58;;;;;;;14.43;10.98;;;10.00;74.40;;;;;;4877822;29;20032;-80
2021/11/28 04:14:24;;;;;;;15.10;11.18;;;10.00;74.30;;;;;;4878236;29;20024;-81
2021/11/28 04:16:50;;;;;;;17.52;11.75;;;10.00;74.30;;;;;;4889760;29;20040;-80
2021/11/28 04:19:16;;;;;;;14.27;10.88;;;10.00;75.00;;;;;;4889941;29;20092;-81
2021/11/28 04:21:46;;;;;;;15.63;11.02;;;10.00;74.30;;;;;;4873417;29;20128;-81
2021/11/28 04:24:14;;;;;;;16.98;10.60;;;10.00;74.30;;;;;;4891641;29;20044;-81
2021/11/28 04:26:40;;;;;;;14.65;11.07;;;10.00;74.40;;;;;;4891426;29;20032;-82
2021/11/28 04:29:07;;;;;;;15.13;11.02;;;10.00;74.40;;;;;;4876202;29;20036;-82
2021/11/28 04:31:34;;;;;;;15.88;11.07;;;10.00;74.40;;;;;;4877133;29;20084;-82
2021/11/28 04:34:00;;;;;;;14.48;10.73;;;10.00;74.40;;;;;;4890215;29;20076;-82
2021/11/28 04:36:27;;;;;;;17.52;11.80;;;10.10;74.50;;;;;;4890179;29;20029;-82
2021/11/28 04:38:53;;;;;;;17.15;12.13;;;10.10;74.50;;;;;;4891445;29;20051;-81
2021/11/28 04:41:19;;;;;;;16.88;12.43;;;10.10;74.50;;;;;;4877929;29;20032;-80
2021/11/28 04:43:52;;;;;;;17.30;11.27;;;10.10;74.50;;;;;;4876544;29;20163;-81
2021/11/28 04:46:18;;;;;;;14.50;10.65;;;10.00;74.40;;;;;;4875373;29;20075;-82
2021/11/28 04:48:44;;;;;;;15.52;11.30;;;10.00;74.50;;;;;;4877258;29;20098;-81
2021/11/28 04:51:24;;;;;;;14.75;10.48;;;10.10;74.60;;;;;;4876440;29;20033;-81
2021/11/28 04:53:52;;;;;;;14.43;10.70;;;10.10;74.50;;;;;;4888510;29;20413;-81
2021/11/28 04:56:18;;;;;;;15.90;11.35;;;10.10;74.30;;;;;;4877093;29;20035;-81
2021/11/28 04:58:44;;;;;;;17.08;11.52;;;10.10;74.40;;;;;;4888351;29;20135;-81
2021/11/28 05:01:10;;;;;;;15.25;10.88;;;10.10;74.50;;;;;;4889345;29;20119;-81
2021/11/28 05:03:36;;;;;;;15.52;11.40;;;10.10;74.50;;;;;;4888193;29;20131;-82
2021/11/28 05:06:28;;;;;;;14.70;10.85;;;10.10;74.40;;;;;;4826705;29;20039;-80
2021/11/28 05:09:07;;;;;;;16.38;11.65;;;10.10;74.40;;;;;;4826618;29;20129;-80
2021/11/28 05:11:33;;;;;;;14.18;11.23;;;10.10;74.30;;;;;;4872388;29;20087;-81
2021/11/28 05:14:00;;;;;;;14.55;10.80;;;10.10;74.30;;;;;;4880866;29;20373;-82
2021/11/28 05:16:27;;;;;;;13.77;9.88;;;10.10;74.50;;;;;;4876642;29;20400;-82
2021/11/28 05:19:11;;;;;;;13.93;10.70;;;10.10;74.30;;;;;;4889992;29;20052;-82
2021/11/28 05:21:57;;;;;;;15.68;10.50;;;10.10;74.40;;;;;;4891237;29;20052;-82
2021/11/28 05:24:23;;;;;;;15.23;10.60;;;10.10;74.40;;;;;;4889920;29;20147;-82
2021/11/28 05:26:52;;;;;;;15.02;10.50;;;10.10;74.40;;;;;;4876739;29;20131;-81
2021/11/28 05:29:20;;;;;;;13.88;10.35;;;10.10;74.40;;;;;;4877244;29;20040;-81
2021/11/28 05:31:46;;;;;;;15.45;10.45;;;10.10;74.40;;;;;;4888973;29;20053;-83
2021/11/28 05:34:36;;;;;;;14.82;11.25;;;10.20;74.40;;;;;;4881556;29;20044;-82
2021/11/28 05:37:20;;;;;;;15.18;10.73;;;10.20;74.50;;;;;;4890291;29;20044;-82
2021/11/28 05:39:50;;;;;;;13.88;9.90;;;10.20;74.40;;;;;;4877708;29;20800;-82
2021/11/28 05:42:16;;;;;;;13.40;10.30;;;10.20;74.40;;;;;;4876396;29;20036;-82
2021/11/28 05:44:42;;;;;;;15.75;10.57;;;10.20;74.40;;;;;;4891281;29;20508;-81
2021/11/28 05:47:41;;;;;;;14.50;10.55;;;10.20;74.40;;;;;;4856205;29;20040;-81
2021/11/28 05:50:33;;;;;;;14.50;10.63;;;10.20;74.40;;;;;;4836109;29;20557;-81
2021/11/28 05:53:00;;;;;;;13.82;10.25;;;10.20;74.40;;;;;;4821176;29;20065;-81
2021/11/28 05:55:26;;;;;;;14.13;11.02;;;10.20;74.40;;;;;;4852840;29;20086;-82
2021/11/28 05:57:55;;;;;;;13.57;9.88;;;10.20;74.40;;;;;;4873494;29;20139;-82
2021/11/28 06:00:22;;;;;;;12.75;9.40;;;10.20;75.00;;;;;;4890458;29;20093;-79
2021/11/28 06:02:53;;;;;;;15.05;10.63;;;10.20;74.20;;;;;;4888613;29;20179;-81
2021/11/28 06:05:47;;;;;;;13.00;10.02;;;10.20;74.30;;;;;;4829784;29;20042;-83
2021/11/28 06:08:41;;;;;;;13.50;10.05;;;10.20;74.20;;;;;;4830277;29;20543;-83
2021/11/28 06:11:08;;;;;;;11.82;10.02;;;10.20;74.20;;;;;;4854039;29;20036;-81
2021/11/28 06:13:35;;;;;;;13.77;9.77;;;10.20;74.00;;;;;;4876663;29;20055;-82
2021/11/28 06:16:15;;;;;;;13.30;9.80;;;10.20;74.10;;;;;;4888483;29;20036;-81
2021/11/28 06:18:44;;;;;;;13.50;9.60;;;10.20;74.10;;;;;;4888114;29;20033;-82
2021/11/28 06:21:16;;;;;;;13.60;10.27;;;10.20;74.00;;;;;;4888940;29;20040;-82
2021/11/28 06:23:48;;;;;;;13.80;9.48;;;10.30;74.10;;;;;;4877180;29;20036;-83
2021/11/28 06:26:15;;;;;;;12.55;9.40;;;10.30;74.00;;;;;;4892443;29;20059;-81
2021/11/28 06:28:41;;;;;;;12.98;9.48;;;10.30;73.90;;;;;;4888226;29;20147;-82
2021/11/28 06:31:07;;;;;;;11.88;9.10;;;10.30;73.90;;;;;;4889226;29;20163;-82
2021/11/28 06:33:36;;;;;;;13.15;9.63;;;10.30;73.80;;;;;;4892251;29;20495;-82
2021/11/28 06:36:05;;;;;;;12.23;9.18;;;10.30;73.80;;;;;;4889515;29;20036;-82
2021/11/28 06:38:49;;;;;;;11.52;9.10;;;10.30;74.30;;;;;;4889067;29;20107;-82
2021/11/28 06:41:34;;;;;;;11.30;9.00;;;10.30;73.60;;;;;;4892741;29;20104;-82
2021/11/28 06:44:00;;;;;;;12.32;9.30;;;10.30;73.60;;;;;;4879206;29;20036;-81
2021/11/28 06:46:26;;;;;;;11.10;8.93;;;10.30;73.60;;;;;;4891865;29;20037;-81
2021/11/28 06:48:53;;;;;;;10.52;8.70;;;10.30;73.40;;;;;;4889550;29;20037;-82
2021/11/28 06:51:48;;;;;;;11.82;8.90;;;10.30;73.40;;;;;;4890313;29;20040;-84
2021/11/28 06:54:28;;;;;;;10.90;8.27;;;10.30;73.30;;;;;;4862787;29;20520;-81
2021/11/28 06:57:00;;;;;;;13.00;8.70;;;10.30;73.30;;;;;;4856688;29;20032;-82
2021/11/28 06:59:28;;;;;;;10.02;8.25;;;10.30;73.20;;;;;;4875611;29;20037;-82
2021/11/28 07:01:55;;;;;;;11.57;8.82;;;10.40;73.10;;;;;;4885519;29;20119;-84
2021/11/28 07:04:44;;;;;;;11.10;8.30;;;10.40;73.10;;;;;;4848522;29;20132;-84
2021/11/28 07:07:36;;;;;;;9.48;7.28;;;10.40;72.90;;;;;;4849610;29;20064;-81
2021/11/28 07:10:06;;;;;;;9.65;7.35;;;10.40;72.80;;;;;;4882780;29;20074;-81
2021/11/28 07:12:35;;;;;;;8.35;6.90;;;10.40;72.90;;;;;;4888879;29;20036;-80
2021/11/28 07:15:13;;;;;;;11.00;6.53;;;10.40;72.90;;;;;;4889479;29;20033;-81
2021/11/28 07:17:39;;;;;;;9.20;6.32;;;10.50;73.00;;;;;;4885937;29;20033;-81
2021/11/28 07:20:11;;;;;;;8.82;6.68;;;10.50;72.80;;;;;;4876400;29;20989;-82
2021/11/28 07:23:01;;;;;;;8.35;6.25;;;10.50;72.60;;;;;;4892310;29;20044;-81
2021/11/28 07:25:28;;;;;;;9.20;6.15;;;10.50;72.20;;;;;;4887392;29;20032;-82
2021/11/28 07:27:57;;;;;;;7.18;5.70;;;10.50;72.10;;;;;;4878781;29;20040;-80
2021/11/28 07:30:23;;;;;;;7.95;6.07;;;10.50;71.80;;;;;;4878059;29;20583;-79
2021/11/28 07:32:55;;;;;;;7.72;5.85;;;10.50;71.60;;;;;;4876425;29;20166;-79
2021/11/28 07:35:30;;;;;;;7.50;6.20;;;10.50;71.40;;;;;;4893943;29;20492;-81
2021/11/28 07:38:05;;;;;;;8.55;5.57;;;10.50;71.30;;;;;;4874865;29;20104;-82
2021/11/28 07:40:31;;;;;;;8.57;6.07;;;10.60;71.20;;;;;;4893819;29;20048;-81
2021/11/28 07:43:16;;;;;;;7.15;5.78;;;10.60;71.10;;;;;;4878025;29;20372;-82
2021/11/28 07:46:02;;;;;;;6.82;5.63;;;10.60;70.90;;;;;;4895861;29;20074;-79
2021/11/28 07:48:48;;;;;;;6.70;5.45;;;10.60;70.90;;;;;;4901254;29;20131;-81
2021/11/28 07:51:21;;;;;;;6.97;5.45;;;10.60;70.70;;;;;;4882564;29;20028;-80
2021/11/28 07:53:49;;;;;;;7.10;5.78;;;10.60;70.60;;;;;;4883082;29;20033;-81
2021/11/28 07:56:22;;;;;;;7.85;5.70;;;10.60;70.60;;;;;;4882658;29;20028;-80
2021/11/28 07:59:06;;;;;;;7.28;5.45;;;10.60;70.60;;;;;;4906260;29;20526;-81
2021/11/28 08:01:32;;;;;;;7.97;5.55;;;10.60;70.50;;;;;;4885595;29;20048;-81
2021/11/28 08:04:17;;;;;;;7.15;5.72;;;10.60;70.30;;;;;;4898104;29;20074;-82
2021/11/28 08:07:06;;;;;;;6.22;5.38;;;10.60;70.30;;;;;;4905221;29;20537;-82
2021/11/28 08:09:35;;;;;;;6.75;5.00;;;10.60;70.20;;;;;;4901263;29;20399;-80
2021/11/28 08:12:11;;;;;;;7.43;5.28;;;10.60;70.00;;;;;;4894193;29;20040;-82
2021/11/28 08:14:38;;;;;;;8.48;5.53;;;10.60;70.00;;;;;;4891930;29;20032;-82
2021/11/28 08:17:04;;;;;;;6.93;5.68;;;10.70;70.00;;;;;;4893491;29;20128;-82
2021/11/28 08:19:30;;;;;;;6.82;5.28;;;10.70;70.00;;;;;;4891732;29;20071;-82
2021/11/28 08:21:58;;;;;;;7.72;5.45;;;10.70;69.90;;;;;;4891042;29;20072;-82
2021/11/28 08:24:25;;;;;;;6.63;5.53;;;10.70;69.80;;;;;;4891380;29;20092;-83
2021/11/28 08:26:51;;;;;;;6.43;5.45;;;10.70;69.80;;;;;;4889956;29;20036;-83
2021/11/28 08:29:17;;;;;;;5.93;4.93;;;10.70;69.70;;;;;;4892351;29;20096;-83
2021/11/28 08:31:46;;;;;;;6.70;5.32;;;10.70;69.50;;;;;;4887595;29;20095;-84
2021/11/28 08:34:30;;;;;;;9.95;5.65;;;10.70;69.60;;;;;;4889574;29;20155;-85
2021/11/28 08:37:03;;;;;;;8.23;5.40;;;10.70;69.60;;;;;;4889198;29;20504;-86
2021/11/28 08:39:29;;;;;;;7.22;5.25;;;10.80;69.70;;;;;;4873197;29;20127;-84
2021/11/28 08:41:55;;;;;;;6.05;5.07;;;10.70;69.50;;;;;;4889139;29;20043;-83
2021/11/28 08:44:21;;;;;;;8.00;5.63;;;10.80;69.40;;;;;;4891223;29;20033;-83
2021/11/28 08:46:48;;;;;;;6.75;5.63;;;10.80;69.50;;;;;;4890046;29;20048;-83
2021/11/28 08:49:14;;;;;;;6.35;4.75;;;10.80;69.20;;;;;;4888695;29;20040;-82
2021/11/28 08:51:40;;;;;;;6.63;5.50;;;10.80;69.20;;;;;;4890083;29;20040;-82
2021/11/28 08:54:07;;;;;;;6.72;5.28;;;10.80;69.10;;;;;;4891421;29;20028;-82
2021/11/28 08:56:33;;;;;;;6.20;5.13;;;10.80;69.00;;;;;;4889389;29;20048;-83
2021/11/28 08:59:00;;;;;;;5.82;5.10;;;10.80;68.90;;;;;;4873147;29;20032;-83
2021/11/28 09:01:26;;;;;;;6.63;5.38;;;10.80;69.00;;;;;;4889765;29;20043;-83
2021/11/28 09:03:52;;;;;;;7.32;5.53;;;10.80;68.90;;;;;;4889188;29;20040;-83
2021/11/28 09:06:18;;;;;;;6.38;5.13;;;10.80;68.80;;;;;;4888716;29;20032;-82
2021/11/28 09:08:44;;;;;;;5.93;4.65;;;10.80;68.70;;;;;;4892127;29;20491;-83
2021/11/28 09:11:10;;;;;;;6.45;4.88;;;10.80;68.80;;;;;;4889441;29;20051;-83
2021/11/28 09:13:37;;;;;;;5.82;5.07;;;10.80;68.70;;;;;;4890917;29;20180;-83
2021/11/28 09:16:04;;;;;;;6.72;5.20;;;10.90;68.70;;;;;;4892321;29;20033;-83
2021/11/28 09:18:38;;;;;;;6.25;5.18;;;10.90;68.50;;;;;;4891489;29;20115;-83
2021/11/28 09:21:04;;;;;;;7.35;5.40;;;10.80;68.40;;;;;;4893235;29;20431;-82
2021/11/28 09:26:14;;;;;;;6.50;5.25;;;10.80;68.30;;;;;;4886909;29;20041;-82
2021/11/28 09:28:41;;;;;;;5.55;4.63;;;10.80;68.30;;;;;;4889215;29;20036;-83
2021/11/28 09:31:10;;;;;;;6.95;5.45;;;10.80;68.30;;;;;;4887935;29;20048;-90
2021/11/28 09:33:39;;;;;;;6.57;5.03;;;10.90;68.30;;;;;;4887279;29;20408;-80
2021/11/28 09:36:06;;;;;;;6.90;5.10;;;10.90;68.20;;;;;;4890450;29;20115;-83
2021/11/28 09:38:32;;;;;;;7.75;5.32;;;10.90;68.10;;;;;;4888456;29;20540;-81
2021/11/28 09:41:06;;;;;;;7.78;5.10;;;10.90;68.10;;;;;;4895907;29;20111;-84
2021/11/28 09:43:34;;;;;;;7.30;5.40;;;10.90;69.20;;;;;;4893712;29;20037;-84
2021/11/28 09:46:03;;;;;;;7.30;4.90;;;10.90;69.80;;;;;;4891724;29;20095;-86
2021/11/28 09:48:33;;;;;;;8.40;5.28;;;10.90;69.70;;;;;;4891415;29;20798;-85
2021/11/28 09:51:04;;;;;;;7.38;5.07;;;10.90;69.40;;;;;;4871299;29;20033;-85
2021/11/28 09:53:35;;;;;;;7.20;5.45;;;10.90;69.10;;;;;;4888031;29;20032;-84
2021/11/28 09:56:02;;;;;;;6.70;5.03;;;10.90;69.10;;;;;;4873563;29;20476;-85
2021/11/28 09:58:29;;;;;;;6.80;4.88;;;11.00;69.40;;;;;;4891170;29;20100;-86
2021/11/28 10:00:59;;;;;;;10.95;5.88;;;11.00;69.30;;;;;;4890281;29;20115;-84
2021/11/28 10:03:26;;;;;;;6.47;5.20;;;11.00;69.10;;;;;;4888185;29;20535;-85
2021/11/28 10:05:54;;;;;;;6.03;4.95;;;11.00;68.80;;;;;;4888357;29;20040;-85
2021/11/28 10:08:21;;;;;;;8.15;5.82;;;11.00;68.60;;;;;;4871198;29;20439;-86
2021/11/28 10:11:06;;;;;;;6.57;5.40;;;11.00;68.50;;;;;;4888503;29;20445;-86
2021/11/28 10:13:33;;;;;;;6.03;5.13;;;11.00;68.50;;;;;;4888714;29;20057;-85
2021/11/28 10:15:58;;;;;;;6.40;5.05;;;11.00;68.20;;;;;;4889465;29;20040;-84
2021/11/28 10:18:25;;;;;;;7.15;5.47;;;11.00;68.20;;;;;;4889243;29;20028;-86
2021/11/28 10:20:52;;;;;;;7.38;5.95;;;11.00;68.20;;;;;;4888544;29;20080;-84
2021/11/28 10:23:17;;;;;;;6.72;5.22;;;11.00;68.20;;;;;;4889596;29;20530;-84
2021/11/28 10:25:43;;;;;;;6.45;5.72;;;11.00;68.20;;;;;;4891121;29;20052;-86
2021/11/28 10:28:10;;;;;;;6.28;5.10;;;11.00;68.10;;;;;;4892008;29;20092;-85
2021/11/28 10:30:38;;;;;;;6.45;5.38;;;11.00;68.10;;;;;;4889213;29;20039;-82
2021/11/28 10:33:13;;;;;;;7.20;5.25;;;11.00;68.00;;;;;;4899977;29;20140;-81
2021/11/28 10:36:03;;;;;;;6.40;5.07;;;11.00;68.50;;;;;;4893242;29;20029;-80
2021/11/28 10:38:38;;;;;;;7.93;4.75;;;11.00;69.80;;;;;;4888145;29;20048;-83
2021/11/28 10:41:27;;;;;;;6.07;5.10;;;11.00;69.70;;;;;;4888705;29;20531;-82
2021/11/28 10:43:53;;;;;;;6.15;5.13;;;11.00;69.50;;;;;;4888603;29;20445;-82
2021/11/28 10:46:30;;;;;;;7.15;5.45;;;11.00;69.20;;;;;;4891154;29;20044;-85
2021/11/28 10:49:03;;;;;;;7.10;5.55;;;11.00;69.00;;;;;;4891550;29;20519;-84
2021/11/28 10:51:29;;;;;;;6.57;4.90;;;11.00;68.80;;;;;;4889524;29;20044;-84
2021/11/28 10:53:55;;;;;;;6.68;5.00;;;11.00;68.70;;;;;;4892640;29;20061;-82
2021/11/28 10:56:21;;;;;;;6.60;5.30;;;11.00;68.60;;;;;;4890164;29;20598;-81
2021/11/28 10:58:46;;;;;;;7.45;5.20;;;11.00;68.50;;;;;;4888650;29;20132;-83
2021/11/28 11:01:13;;;;;;;8.18;5.85;;;11.00;68.50;;;;;;4889701;29;20103;-82
2021/11/28 11:03:47;;;;;;;7.50;5.63;;;11.00;68.30;;;;;;4890752;29;20033;-82
2021/11/28 11:06:24;;;;;;;6.45;5.70;;;11.00;68.20;;;;;;4871368;29;20398;-83
2021/11/28 11:09:18;;;;;;;10.65;6.38;;;11.00;68.30;;;;;;4891089;29;20033;-81
2021/11/28 11:11:43;;;;;;;8.93;5.57;;;11.00;68.20;;;;;;4891024;29;20459;-80
2021/11/28 11:14:10;;;;;;;7.80;5.93;;;11.00;68.10;;;;;;4888655;29;20155;-83
2021/11/28 11:16:41;;;;;;;9.77;6.15;;;11.00;68.20;;;;;;4888548;29;20037;-82
2021/11/28 11:19:36;;;;;;;7.82;5.60;;;11.00;68.10;;;;;;4891014;29;20494;-84
2021/11/28 11:22:24;;;;;;;7.57;6.03;;;11.00;68.20;;;;;;4891564;29;20044;-83
2021/11/28 11:24:58;;;;;;;8.40;6.18;;;11.00;68.10;;;;;;4890455;29;20041;-84
2021/11/28 11:27:31;;;;;;;8.27;6.18;;;11.00;68.20;;;;;;4887288;29;20040;-84
2021/11/28 11:30:02;;;;;;;7.55;5.90;;;11.00;68.30;;;;;;4890596;29;20055;-86
2021/11/28 11:32:42;;;;;;;8.10;6.15;;;11.00;68.40;;;;;;4889182;29;20409;-85
2021/11/28 11:35:14;;;;;;;9.68;6.32;;;11.00;68.50;;;;;;4890944;29;20087;-87
2021/11/28 11:37:39;;;;;;;8.93;6.95;;;11.00;68.50;;;;;;4889446;29;20036;-84
2021/11/28 11:40:11;;;;;;;9.43;6.78;;;11.00;68.50;;;;;;4888637;29;20183;-85
2021/11/28 11:42:48;;;;;;;7.88;6.45;;;11.00;68.40;;;;;;4889798;29;20040;-86
2021/11/28 11:45:48;;;;;;;8.48;6.65;;;11.00;68.50;;;;;;4876052;29;20423;-84
2021/11/28 11:48:14;;;;;;;7.85;6.20;;;11.00;68.50;;;;;;4891682;29;20815;-84
2021/11/28 11:50:42;;;;;;;6.95;5.88;;;11.00;68.50;;;;;;4892951;29;20040;-82
2021/11/28 11:53:07;;;;;;;6.85;5.57;;;11.00;68.50;;;;;;4895212;29;20036;-84
2021/11/28 11:55:39;;;;;;;7.68;5.93;;;11.00;68.50;;;;;;4895157;29;20073;-83
2021/11/28 11:58:24;;;;;;;6.63;5.68;;;10.90;68.40;;;;;;4900614;29;20061;-92
2021/11/28 12:00:59;;;;;;;7.32;5.88;;;11.00;68.40;;;;;;4881106;29;20127;-84
2021/11/28 12:03:25;;;;;;;6.57;5.67;;;10.90;68.30;;;;;;4881303;29;20140;-88
2021/11/28 12:05:57;;;;;;;7.30;5.53;;;10.90;68.30;;;;;;4882965;29;20816;-83
2021/11/28 12:08:31;;;;;;;6.82;5.50;;;10.90;68.30;;;;;;4893208;29;20127;-87
2021/11/28 12:10:57;;;;;;;7.22;5.10;;;10.90;68.20;;;;;;4888106;29;20040;-86
2021/11/28 12:13:25;;;;;;;6.80;5.30;;;11.00;68.40;;;;;;4891626;29;20037;-86
2021/11/28 12:16:13;;;;;;;8.63;5.72;;;10.90;68.80;;;;;;4889516;29;20036;-84
2021/11/28 12:18:44;;;;;;;6.65;5.07;;;11.00;68.90;;;;;;4892808;29;20041;-86
2021/11/28 12:21:15;;;;;;;6.80;4.90;;;11.00;68.60;;;;;;4891115;29;20076;-86
2021/11/28 12:23:52;;;;;;;5.40;4.30;;;11.00;68.40;;;;;;4889589;29;20504;-87
2021/11/28 12:26:28;;;;;;;6.10;4.88;;;11.00;68.20;;;;;;4875645;29;20127;-84
2021/11/28 12:29:13;;;;;;;6.15;4.80;;;11.00;68.00;;;;;;4891413;29;20047;-86
2021/11/28 12:31:44;;;;;;;5.75;4.40;;;11.00;67.90;;;;;;4879041;29;20052;-85
2021/11/28 12:34:18;;;;;;;5.72;4.70;;;11.00;67.70;;;;;;4897368;29;20043;-86
2021/11/28 12:36:47;;;;;;;5.07;4.47;;;10.90;67.60;;;;;;4878562;29;20059;-82
2021/11/28 12:39:16;;;;;;;5.70;4.40;;;11.00;67.50;;;;;;4876952;29;20033;-84
2021/11/28 12:41:45;;;;;;;5.57;4.07;;;11.00;67.50;;;;;;4894458;29;20111;-83
2021/11/28 12:44:15;;;;;;;5.72;4.22;;;10.90;67.20;;;;;;4900411;29;20545;-82
2021/11/28 12:46:43;;;;;;;5.63;4.75;;;10.90;67.40;;;;;;4889380;29;20407;-81
2021/11/28 12:49:44;;;;;;;4.85;4.03;;;10.90;67.80;;;;;;4898500;29;20045;-81
2021/11/28 12:52:25;;;;;;;5.85;3.97;;;11.00;67.70;;;;;;4885014;29;20036;-83
2021/11/28 12:55:03;;;;;;;4.78;3.72;;;11.00;67.50;;;;;;4899569;29;20025;-82
2021/11/28 12:57:40;;;;;;;5.28;4.10;;;10.90;67.30;;;;;;4900229;29;20047;-82
2021/11/28 13:00:27;;;;;;;4.75;3.78;;;10.90;67.20;;;;;;4897791;29;20084;-80
2021/11/28 13:03:02;;;;;;;8.38;4.30;;;10.90;67.00;;;;;;4897251;29;20041;-83
2021/11/28 13:05:28;;;;;;;5.53;3.97;;;10.90;66.80;;;;;;4879917;29;20047;-82
2021/11/28 13:07:55;;;;;;;5.57;3.83;;;10.90;66.90;;;;;;4897950;29;20036;-82